sensor_id;sensor_type;location;lat;lon;timestamp;pressure;altitude;pressure_sealevel;temperature;humidity
30554;BME280;17335;50.720;7.452;2023-04-03T00:00:59;100466.38;;;2.14;100.00
30554;BME280;17335;50.720;7.452;2023-04-03T00:03:25;100454.81;;;2.15;100.00
30554;BME280;17335;50.720;7.452;2023-04-03T00:05:52;100465.31;;;2.18;100.00
30554;BME280;17335;50.720;7.452;2023-04-03T00:08:19;100462.47;;;2.22;100.00
30554;BME280;17335;50.720;7.452;2023-04-03T00:10:46;100463.31;;;2.23;100.00
30554;BME280;17335;50.720;7.452;2023-04-03T00:13:13;100466.97;;;2.20;100.00
30554;BME280;17335;50.720;7.452;2023-04-03T00:15:41;100467.66;;;2.25;100.00
30554;BME280;17335;50.720;7.452;2023-04-03T00:18:08;100470.25;;;2.27;100.00
30554;BME280;17335;50.720;7.452;2023-04-03T00:20:35;100467.66;;;2.25;100.00
30554;BME280;17335;50.720;7.452;2023-04-03T00:23:02;100462.28;;;2.27;100.00
30554;BME280;17335;50.720;7.452;2023-04-03T00:25:28;100464.78;;;2.30;100.00
30554;BME280;17335;50.720;7.452;2023-04-03T00:27:55;100473.28;;;2.38;100.00
30554;BME280;17335;50.720;7.452;2023-04-03T00:30:22;100464.66;;;2.33;100.00
30554;BME280;17335;50.720;7.452;2023-04-03T00:32:50;100470.69;;;2.37;100.00
30554;BME280;17335;50.720;7.452;2023-04-03T00:35:18;100461.88;;;2.36;100.00
30554;BME280;17335;50.720;7.452;2023-04-03T00:37:45;100473.16;;;2.41;100.00
30554;BME280;17335;50.720;7.452;2023-04-03T00:40:14;100462.50;;;2.43;100.00
30554;BME280;17335;50.720;7.452;2023-04-03T00:42:42;100458.22;;;2.39;100.00
30554;BME280;17335;50.720;7.452;2023-04-03T00:47:44;100458.56;;;2.31;100.00
30554;BME280;17335;50.720;7.452;2023-04-03T00:50:11;100465.50;;;2.34;100.00
30554;BME280;17335;50.720;7.452;2023-04-03T00:52:38;100453.16;;;2.34;100.00
30554;BME280;17335;50.720;7.452;2023-04-03T00:55:07;100458.44;;;2.34;100.00
30554;BME280;17335;50.720;7.452;2023-04-03T00:57:34;100460.22;;;2.34;100.00
30554;BME280;17335;50.720;7.452;2023-04-03T01:00:06;100468.03;;;2.37;100.00
30554;BME280;17335;50.720;7.452;2023-04-03T01:02:35;100453.94;;;2.36;100.00
30554;BME280;17335;50.720;7.452;2023-04-03T01:05:02;100453.09;;;2.36;100.00
30554;BME280;17335;50.720;7.452;2023-04-03T01:07:30;100459.63;;;2.27;100.00
30554;BME280;17335;50.720;7.452;2023-04-03T01:09:59;100446.25;;;2.30;100.00
30554;BME280;17335;50.720;7.452;2023-04-03T01:12:32;100444.47;;;2.31;100.00
30554;BME280;17335;50.720;7.452;2023-04-03T01:15:08;100442.97;;;2.23;100.00
30554;BME280;17335;50.720;7.452;2023-04-03T01:17:36;100442.06;;;2.24;100.00
30554;BME280;17335;50.720;7.452;2023-04-03T01:25:45;100434.53;;;2.15;100.00
30554;BME280;17335;50.720;7.452;2023-04-03T01:28:24;100444.22;;;2.15;100.00
30554;BME280;17335;50.720;7.452;2023-04-03T01:31:02;100437.16;;;2.15;100.00
30554;BME280;17335;50.720;7.452;2023-04-03T01:33:32;100449.63;;;2.13;100.00
30554;BME280;17335;50.720;7.452;2023-04-03T01:35:58;100454.25;;;2.08;100.00
30554;BME280;17335;50.720;7.452;2023-04-03T01:38:25;100450.78;;;2.06;100.00
30554;BME280;17335;50.720;7.452;2023-04-03T01:40:52;100447.47;;;2.01;100.00
30554;BME280;17335;50.720;7.452;2023-04-03T01:43:19;100444.28;;;1.93;100.00
30554;BME280;17335;50.720;7.452;2023-04-03T01:45:45;100455.13;;;1.86;100.00
30554;BME280;17335;50.720;7.452;2023-04-03T01:48:13;100453.53;;;1.82;100.00
30554;BME280;17335;50.720;7.452;2023-04-03T01:50:40;100453.81;;;1.75;100.00
30554;BME280;17335;50.720;7.452;2023-04-03T01:53:06;100453.75;;;1.76;100.00
30554;BME280;17335;50.720;7.452;2023-04-03T01:55:33;100458.16;;;1.77;100.00
30554;BME280;17335;50.720;7.452;2023-04-03T01:57:59;100446.59;;;1.78;100.00
30554;BME280;17335;50.720;7.452;2023-04-03T02:00:26;100456.22;;;1.81;100.00
30554;BME280;17335;50.720;7.452;2023-04-03T02:02:53;100453.53;;;1.82;100.00
30554;BME280;17335;50.720;7.452;2023-04-03T02:05:20;100454.44;;;1.81;100.00
30554;BME280;17335;50.720;7.452;2023-04-03T02:07:46;100451.78;;;1.81;100.00
30554;BME280;17335;50.720;7.452;2023-04-03T02:10:13;100457.09;;;1.81;100.00
30554;BME280;17335;50.720;7.452;2023-04-03T02:12:39;100457.31;;;1.75;100.00
30554;BME280;17335;50.720;7.452;2023-04-03T02:15:06;100454.38;;;1.61;100.00
30554;BME280;17335;50.720;7.452;2023-04-03T02:17:35;100452.56;;;1.61;100.00
30554;BME280;17335;50.720;7.452;2023-04-03T02:20:02;100456.22;;;1.59;100.00
30554;BME280;17335;50.720;7.452;2023-04-03T02:22:35;100453.25;;;1.66;100.00
30554;BME280;17335;50.720;7.452;2023-04-03T02:25:03;100457.31;;;1.53;100.00
30554;BME280;17335;50.720;7.452;2023-04-03T02:27:29;100452.88;;;1.54;100.00
30554;BME280;17335;50.720;7.452;2023-04-03T02:29:56;100451.16;;;1.53;100.00
30554;BME280;17335;50.720;7.452;2023-04-03T02:32:23;100465.28;;;1.53;100.00
30554;BME280;17335;50.720;7.452;2023-04-03T02:34:49;100456.34;;;1.56;100.00
30554;BME280;17335;50.720;7.452;2023-04-03T02:37:16;100456.56;;;1.49;100.00
30554;BME280;17335;50.720;7.452;2023-04-03T02:39:42;100448.81;;;1.45;100.00
30554;BME280;17335;50.720;7.452;2023-04-03T02:42:09;100451.69;;;1.39;100.00
30554;BME280;17335;50.720;7.452;2023-04-03T02:44:36;100452.63;;;1.38;100.00
30554;BME280;17335;50.720;7.452;2023-04-03T02:47:03;100454.59;;;1.33;100.00
30554;BME280;17335;50.720;7.452;2023-04-03T02:49:29;100459.00;;;1.32;100.00
30554;BME280;17335;50.720;7.452;2023-04-03T02:51:56;100452.47;;;1.19;100.00
30554;BME280;17335;50.720;7.452;2023-04-03T02:54:23;100451.84;;;1.12;100.00
30554;BME280;17335;50.720;7.452;2023-04-03T02:56:54;100456.44;;;1.07;100.00
30554;BME280;17335;50.720;7.452;2023-04-03T02:59:21;100461.13;;;0.99;100.00
30554;BME280;17335;50.720;7.452;2023-04-03T03:01:47;100458.53;;;0.97;100.00
30554;BME280;17335;50.720;7.452;2023-04-03T03:04:14;100457.97;;;0.89;100.00
30554;BME280;17335;50.720;7.452;2023-04-03T03:06:40;100459.97;;;0.82;100.00
30554;BME280;17335;50.720;7.452;2023-04-03T03:09:10;100456.84;;;0.71;100.00
30554;BME280;17335;50.720;7.452;2023-04-03T03:11:37;100462.50;;;0.60;100.00
30554;BME280;17335;50.720;7.452;2023-04-03T03:14:04;100463.72;;;0.50;100.00
30554;BME280;17335;50.720;7.452;2023-04-03T03:16:30;100467.47;;;0.44;100.00
30554;BME280;17335;50.720;7.452;2023-04-03T03:18:57;100465.94;;;0.37;100.00
30554;BME280;17335;50.720;7.452;2023-04-03T03:21:24;100469.63;;;0.33;100.00
30554;BME280;17335;50.720;7.452;2023-04-03T03:23:51;100468.88;;;0.29;100.00
30554;BME280;17335;50.720;7.452;2023-04-03T03:26:17;100469.16;;;0.20;100.00
30554;BME280;17335;50.720;7.452;2023-04-03T03:28:44;100469.31;;;0.15;100.00
30554;BME280;17335;50.720;7.452;2023-04-03T03:31:11;100464.28;;;0.08;100.00
30554;BME280;17335;50.720;7.452;2023-04-03T03:33:38;100464.59;;;-0.02;100.00
30554;BME280;17335;50.720;7.452;2023-04-03T03:36:05;100469.94;;;-0.03;100.00
30554;BME280;17335;50.720;7.452;2023-04-03T03:38:32;100470.69;;;0.01;100.00
30554;BME280;17335;50.720;7.452;2023-04-03T03:40:59;100469.94;;;-0.03;100.00
30554;BME280;17335;50.720;7.452;2023-04-03T03:43:27;100474.44;;;-0.07;100.00
30554;BME280;17335;50.720;7.452;2023-04-03T03:45:54;100475.44;;;-0.11;100.00
30554;BME280;17335;50.720;7.452;2023-04-03T03:48:21;100481.75;;;-0.15;100.00
30554;BME280;17335;50.720;7.452;2023-04-03T03:50:48;100477.56;;;-0.22;100.00
30554;BME280;17335;50.720;7.452;2023-04-03T03:53:15;100475.84;;;-0.23;100.00
30554;BME280;17335;50.720;7.452;2023-04-03T03:55:42;100480.22;;;-0.22;100.00
30554;BME280;17335;50.720;7.452;2023-04-03T03:58:09;100474.97;;;-0.24;100.00
30554;BME280;17335;50.720;7.452;2023-04-03T04:00:36;100483.84;;;-0.26;100.00
30554;BME280;17335;50.720;7.452;2023-04-03T04:03:02;100480.31;;;-0.25;100.00
30554;BME280;17335;50.720;7.452;2023-04-03T04:05:29;100475.22;;;-0.31;100.00
30554;BME280;17335;50.720;7.452;2023-04-03T04:07:56;100484.88;;;-0.30;100.00
30554;BME280;17335;50.720;7.452;2023-04-03T04:10:23;100484.06;;;-0.32;100.00
30554;BME280;17335;50.720;7.452;2023-04-03T04:12:50;100480.22;;;-0.22;100.00
30554;BME280;17335;50.720;7.452;2023-04-03T04:15:17;100475.06;;;-0.27;100.00
30554;BME280;17335;50.720;7.452;2023-04-03T04:17:45;100480.47;;;-0.31;100.00
30554;BME280;17335;50.720;7.452;2023-04-03T04:20:11;100480.56;;;-0.34;100.00
30554;BME280;17335;50.720;7.452;2023-04-03T04:22:38;100481.19;;;-0.26;100.00
30554;BME280;17335;50.720;7.452;2023-04-03T04:25:05;100482.91;;;-0.24;100.00
30554;BME280;17335;50.720;7.452;2023-04-03T04:27:32;100483.44;;;-0.14;100.00
30554;BME280;17335;50.720;7.452;2023-04-03T04:29:58;100480.09;;;0.09;100.00
30554;BME280;17335;50.720;7.452;2023-04-03T04:32:25;100475.97;;;0.01;100.00
30554;BME280;17335;50.720;7.452;2023-04-03T04:34:52;100479.00;;;0.15;100.00
30554;BME280;17335;50.720;7.452;2023-04-03T04:37:19;100477.34;;;0.12;100.00
30554;BME280;17335;50.720;7.452;2023-04-03T04:39:46;100478.78;;;0.23;100.00
30554;BME280;17335;50.720;7.452;2023-04-03T04:42:12;100479.88;;;0.15;100.00
30554;BME280;17335;50.720;7.452;2023-04-03T04:44:42;100486.88;;;0.16;100.00
30554;BME280;17335;50.720;7.452;2023-04-03T04:47:08;100489.63;;;0.13;100.00
30554;BME280;17335;50.720;7.452;2023-04-03T04:49:35;100487.91;;;0.12;100.00
30554;BME280;17335;50.720;7.452;2023-04-03T04:52:02;100487.88;;;0.14;100.00
30554;BME280;17335;50.720;7.452;2023-04-03T04:54:29;100494.28;;;0.05;100.00
30554;BME280;17335;50.720;7.452;2023-04-03T04:56:55;100488.94;;;0.07;100.00
30554;BME280;17335;50.720;7.452;2023-04-03T04:59:22;100493.16;;;0.14;100.00
30554;BME280;17335;50.720;7.452;2023-04-03T05:01:49;100485.38;;;0.09;100.00
30554;BME280;17335;50.720;7.452;2023-04-03T05:04:16;100484.69;;;0.03;100.00
30554;BME280;17335;50.720;7.452;2023-04-03T05:06:43;100501.44;;;0.02;100.00
30554;BME280;17335;50.720;7.452;2023-04-03T05:09:09;100494.53;;;-0.03;100.00
30554;BME280;17335;50.720;7.452;2023-04-03T05:11:36;100499.19;;;-0.11;100.00
30554;BME280;17335;50.720;7.452;2023-04-03T05:14:03;100497.28;;;-0.06;100.00
30554;BME280;17335;50.720;7.452;2023-04-03T05:16:33;100497.38;;;-0.09;100.00
30554;BME280;17335;50.720;7.452;2023-04-03T05:18:59;100501.56;;;-0.02;100.00
30554;BME280;17335;50.720;7.452;2023-04-03T05:21:26;100506.78;;;0.00;100.00
30554;BME280;17335;50.720;7.452;2023-04-03T05:23:54;100509.44;;;0.00;100.00
30554;BME280;17335;50.720;7.452;2023-04-03T05:26:20;100518.31;;;-0.03;100.00
30554;BME280;17335;50.720;7.452;2023-04-03T05:28:47;100510.38;;;-0.03;100.00
30554;BME280;17335;50.720;7.452;2023-04-03T05:31:14;100508.47;;;0.03;100.00
30554;BME280;17335;50.720;7.452;2023-04-03T05:33:41;100516.47;;;-0.01;100.00
30554;BME280;17335;50.720;7.452;2023-04-03T05:36:08;100509.56;;;-0.05;100.00
30554;BME280;17335;50.720;7.452;2023-04-03T05:38:35;100520.13;;;-0.05;100.00
30554;BME280;17335;50.720;7.452;2023-04-03T05:41:02;100525.31;;;-0.02;100.00
30554;BME280;17335;50.720;7.452;2023-04-03T05:43:29;100525.69;;;0.14;100.00
30554;BME280;17335;50.720;7.452;2023-04-03T05:45:55;100533.69;;;0.11;100.00
30554;BME280;17335;50.720;7.452;2023-04-03T05:48:22;100532.03;;;0.09;100.00
30554;BME280;17335;50.720;7.452;2023-04-03T05:50:49;100537.19;;;0.12;100.00
30554;BME280;17335;50.720;7.452;2023-04-03T05:53:20;100537.19;;;0.12;100.00
30554;BME280;17335;50.720;7.452;2023-04-03T05:55:47;100535.09;;;0.23;100.00
30554;BME280;17335;50.720;7.452;2023-04-03T05:58:14;100538.63;;;0.22;100.00
30554;BME280;17335;50.720;7.452;2023-04-03T06:00:40;100541.97;;;0.27;100.00
30554;BME280;17335;50.720;7.452;2023-04-03T06:03:07;100546.97;;;0.36;100.00
30554;BME280;17335;50.720;7.452;2023-04-03T06:05:34;100548.50;;;0.44;100.00
30554;BME280;17335;50.720;7.452;2023-04-03T06:08:02;100546.44;;;0.53;100.00
30554;BME280;17335;50.720;7.452;2023-04-03T06:10:29;100555.59;;;0.68;100.00
30554;BME280;17335;50.720;7.452;2023-04-03T06:12:56;100545.72;;;0.73;100.00
30554;BME280;17335;50.720;7.452;2023-04-03T06:15:23;100542.75;;;0.84;100.00
30554;BME280;17335;50.720;7.452;2023-04-03T06:17:50;100535.22;;;0.97;100.00
30554;BME280;17335;50.720;7.452;2023-04-03T06:20:17;100542.13;;;1.01;100.00
30554;BME280;17335;50.720;7.452;2023-04-03T06:22:43;100540.34;;;1.02;100.00
30554;BME280;17335;50.720;7.452;2023-04-03T06:25:10;100540.06;;;1.09;100.00
30554;BME280;17335;50.720;7.452;2023-04-03T06:27:38;100535.47;;;1.15;100.00
30554;BME280;17335;50.720;7.452;2023-04-03T06:30:07;100536.13;;;1.21;100.00
30554;BME280;17335;50.720;7.452;2023-04-03T06:32:33;100537.66;;;1.27;100.00
30554;BME280;17335;50.720;7.452;2023-04-03T06:35:00;100549.75;;;1.34;100.00
30554;BME280;17335;50.720;7.452;2023-04-03T06:37:27;100535.56;;;1.37;100.00
30554;BME280;17335;50.720;7.452;2023-04-03T06:39:55;100549.47;;;1.42;100.00
30554;BME280;17335;50.720;7.452;2023-04-03T06:42:22;100541.66;;;1.62;100.00
30554;BME280;17335;50.720;7.452;2023-04-03T06:44:49;100539.63;;;1.69;100.00
30554;BME280;17335;50.720;7.452;2023-04-03T06:47:16;100540.44;;;1.71;100.00
30554;BME280;17335;50.720;7.452;2023-04-03T06:49:43;100542.19;;;1.72;100.00
30554;BME280;17335;50.720;7.452;2023-04-03T06:52:10;100544.47;;;1.81;100.00
30554;BME280;17335;50.720;7.452;2023-04-03T06:54:38;100551.28;;;1.87;100.00
30554;BME280;17335;50.720;7.452;2023-04-03T06:57:05;100552.91;;;1.91;100.00
30554;BME280;17335;50.720;7.452;2023-04-03T06:59:32;100550.22;;;1.93;100.00
30554;BME280;17335;50.720;7.452;2023-04-03T07:01:59;100551.69;;;2.00;100.00
30554;BME280;17335;50.720;7.452;2023-04-03T07:04:26;100555.75;;;2.09;100.00
30554;BME280;17335;50.720;7.452;2023-04-03T07:06:52;100547.00;;;2.06;100.00
30554;BME280;17335;50.720;7.452;2023-04-03T07:09:19;100558.22;;;2.13;100.00
30554;BME280;17335;50.720;7.452;2023-04-03T07:11:46;100553.78;;;2.14;100.00
30554;BME280;17335;50.720;7.452;2023-04-03T07:14:12;100549.09;;;2.20;100.00
30554;BME280;17335;50.720;7.452;2023-04-03T07:16:39;100554.19;;;2.25;100.00
30554;BME280;17335;50.720;7.452;2023-04-03T07:19:08;100560.19;;;2.30;100.00
30554;BME280;17335;50.720;7.452;2023-04-03T07:21:35;100562.34;;;2.20;100.00
30554;BME280;17335;50.720;7.452;2023-04-03T07:24:02;100562.22;;;2.23;100.00
30554;BME280;17335;50.720;7.452;2023-04-03T07:26:29;100570.16;;;2.23;100.00
30554;BME280;17335;50.720;7.452;2023-04-03T07:28:55;100562.22;;;2.23;100.00
30554;BME280;17335;50.720;7.452;2023-04-03T07:31:22;100559.94;;;2.36;100.00
30554;BME280;17335;50.720;7.452;2023-04-03T07:33:49;100558.81;;;2.42;100.00
30554;BME280;17335;50.720;7.452;2023-04-03T07:36:18;100558.94;;;2.39;100.00
30554;BME280;17335;50.720;7.452;2023-04-03T07:38:45;100563.22;;;2.43;100.00
30554;BME280;17335;50.720;7.452;2023-04-03T07:41:17;100564.63;;;2.52;100.00
30554;BME280;17335;50.720;7.452;2023-04-03T07:43:44;100564.44;;;2.56;100.00
30554;BME280;17335;50.720;7.452;2023-04-03T07:46:12;100574.69;;;2.64;100.00
30554;BME280;17335;50.720;7.452;2023-04-03T07:48:39;100578.38;;;2.82;100.00
30554;BME280;17335;50.720;7.452;2023-04-03T07:51:05;100576.09;;;2.73;100.00
30554;BME280;17335;50.720;7.452;2023-04-03T07:53:32;100576.25;;;2.90;100.00
30554;BME280;17335;50.720;7.452;2023-04-03T07:55:59;100574.00;;;3.02;100.00
30554;BME280;17335;50.720;7.452;2023-04-03T07:58:26;100570.69;;;2.96;100.00
30554;BME280;17335;50.720;7.452;2023-04-03T08:00:53;100567.78;;;3.03;100.00
30554;BME280;17335;50.720;7.452;2023-04-03T08:03:21;100563.94;;;3.10;100.00
30554;BME280;17335;50.720;7.452;2023-04-03T08:05:48;100568.56;;;3.05;100.00
30554;BME280;17335;50.720;7.452;2023-04-03T08:08:18;100567.25;;;3.15;100.00
30554;BME280;17335;50.720;7.452;2023-04-03T08:10:51;100571.88;;;3.30;100.00
30554;BME280;17335;50.720;7.452;2023-04-03T08:13:19;100561.31;;;3.29;100.00
30554;BME280;17335;50.720;7.452;2023-04-03T08:15:47;100571.72;;;3.33;100.00
30554;BME280;17335;50.720;7.452;2023-04-03T08:18:14;100567.72;;;3.44;100.00
30554;BME280;17335;50.720;7.452;2023-04-03T08:20:42;100567.16;;;3.37;100.00
30554;BME280;17335;50.720;7.452;2023-04-03T08:23:09;100564.28;;;3.42;100.00
30554;BME280;17335;50.720;7.452;2023-04-03T08:25:41;100572.09;;;3.45;100.00
30554;BME280;17335;50.720;7.452;2023-04-03T08:28:09;100570.03;;;3.51;100.00
30554;BME280;17335;50.720;7.452;2023-04-03T08:30:40;100571.28;;;3.63;100.00
30554;BME280;17335;50.720;7.452;2023-04-03T08:33:09;100575.56;;;3.47;100.00
30554;BME280;17335;50.720;7.452;2023-04-03T08:35:40;100577.16;;;3.51;100.00
30554;BME280;17335;50.720;7.452;2023-04-03T08:38:09;100572.25;;;3.42;100.00
30554;BME280;17335;50.720;7.452;2023-04-03T08:40:36;100575.78;;;3.42;100.00
30554;BME280;17335;50.720;7.452;2023-04-03T08:45:55;100567.91;;;3.79;100.00
30554;BME280;17335;50.720;7.452;2023-04-03T08:50:56;100571.50;;;3.97;100.00
30554;BME280;17335;50.720;7.452;2023-04-03T08:53:30;100582.75;;;4.02;100.00
30554;BME280;17335;50.720;7.452;2023-04-03T08:56:10;100570.69;;;4.13;100.00
30554;BME280;17335;50.720;7.452;2023-04-03T08:58:48;100572.13;;;4.21;100.00
30554;BME280;17335;50.720;7.452;2023-04-03T09:03:51;100580.44;;;4.32;100.00
30554;BME280;17335;50.720;7.452;2023-04-03T09:06:23;100571.84;;;4.27;100.00
30554;BME280;17335;50.720;7.452;2023-04-03T09:09:15;100586.00;;;4.45;100.00
30554;BME280;17335;50.720;7.452;2023-04-03T09:11:55;100574.38;;;4.47;100.00
30554;BME280;17335;50.720;7.452;2023-04-03T09:17:00;100577.28;;;4.60;100.00
30554;BME280;17335;50.720;7.452;2023-04-03T09:22:26;100585.66;;;4.70;100.00
30554;BME280;17335;50.720;7.452;2023-04-03T09:25:02;100583.00;;;4.53;100.00
30554;BME280;17335;50.720;7.452;2023-04-03T09:27:31;100575.31;;;4.64;100.00
30554;BME280;17335;50.720;7.452;2023-04-03T09:29:57;100583.63;;;4.75;100.00
30554;BME280;17335;50.720;7.452;2023-04-03T09:32:32;100579.09;;;4.77;100.00
30554;BME280;17335;50.720;7.452;2023-04-03T09:35:03;100575.66;;;4.93;100.00
30554;BME280;17335;50.720;7.452;2023-04-03T09:37:50;100566.97;;;5.06;100.00
30554;BME280;17335;50.720;7.452;2023-04-03T09:42:59;100568.31;;;4.80;100.00
30554;BME280;17335;50.720;7.452;2023-04-03T09:45:33;100574.41;;;4.82;100.00
30554;BME280;17335;50.720;7.452;2023-04-03T09:55:55;100560.53;;;5.28;100.00
30554;BME280;17335;50.720;7.452;2023-04-03T09:58:45;100566.41;;;5.35;99.12
30554;BME280;17335;50.720;7.452;2023-04-03T10:06:45;100556.50;;;5.86;95.36
30554;BME280;17335;50.720;7.452;2023-04-03T10:09:29;100556.78;;;5.81;96.44
30554;BME280;17335;50.720;7.452;2023-04-03T10:12:05;100556.25;;;5.91;95.34
30554;BME280;17335;50.720;7.452;2023-04-03T10:14:34;100565.75;;;5.96;92.88
30554;BME280;17335;50.720;7.452;2023-04-03T10:22:55;100554.69;;;5.71;93.53
30554;BME280;17335;50.720;7.452;2023-04-03T10:25:44;100562.84;;;5.68;90.49
30554;BME280;17335;50.720;7.452;2023-04-03T10:28:25;100552.00;;;5.71;93.65
30554;BME280;17335;50.720;7.452;2023-04-03T10:42:25;100545.72;;;6.05;78.89
30554;BME280;17335;50.720;7.452;2023-04-03T10:44:55;100553.06;;;5.84;70.65
30554;BME280;17335;50.720;7.452;2023-04-03T10:47:39;100544.22;;;6.15;73.60
30554;BME280;17335;50.720;7.452;2023-04-03T10:50:37;100547.94;;;6.13;71.12
30554;BME280;17335;50.720;7.452;2023-04-03T10:58:35;100537.59;;;6.38;78.38
30554;BME280;17335;50.720;7.452;2023-04-03T11:01:11;100536.13;;;6.49;72.42
30554;BME280;17335;50.720;7.452;2023-04-03T11:03:43;100533.56;;;6.31;72.06
30554;BME280;17335;50.720;7.452;2023-04-03T11:06:12;100522.31;;;6.26;70.22
30554;BME280;17335;50.720;7.452;2023-04-03T11:08:48;100512.91;;;6.35;64.95
30554;BME280;17335;50.720;7.452;2023-04-03T11:11:26;100511.31;;;6.77;67.80
30554;BME280;17335;50.720;7.452;2023-04-03T11:14:14;100509.97;;;7.14;70.59
30554;BME280;17335;50.720;7.452;2023-04-03T11:16:50;100511.78;;;7.00;65.52
30554;BME280;17335;50.720;7.452;2023-04-03T11:19:33;100500.31;;;6.98;67.42
30554;BME280;17335;50.720;7.452;2023-04-03T11:22:11;100502.28;;;6.49;64.19
30554;BME280;17335;50.720;7.452;2023-04-03T11:24:42;100496.09;;;6.79;65.95
30554;BME280;17335;50.720;7.452;2023-04-03T11:27:19;100509.94;;;7.00;63.90
30554;BME280;17335;50.720;7.452;2023-04-03T11:29:50;100508.25;;;7.13;56.83
30554;BME280;17335;50.720;7.452;2023-04-03T11:35:28;100501.28;;;6.97;55.55
30554;BME280;17335;50.720;7.452;2023-04-03T11:37:56;100503.38;;;7.20;55.50
30554;BME280;17335;50.720;7.452;2023-04-03T11:40:33;100500.44;;;7.54;57.23
30554;BME280;17335;50.720;7.452;2023-04-03T11:43:07;100495.34;;;7.49;53.54
30554;BME280;17335;50.720;7.452;2023-04-03T11:45:51;100488.78;;;7.40;49.40
30554;BME280;17335;50.720;7.452;2023-04-03T11:50:55;100491.66;;;7.37;50.75
30554;BME280;17335;50.720;7.452;2023-04-03T11:53:39;100487.84;;;6.98;53.37
30554;BME280;17335;50.720;7.452;2023-04-03T11:56:27;100479.25;;;6.93;54.61
30554;BME280;17335;50.720;7.452;2023-04-03T12:04:24;100488.69;;;6.99;52.17
30554;BME280;17335;50.720;7.452;2023-04-03T12:06:58;100481.75;;;7.39;52.92
30554;BME280;17335;50.720;7.452;2023-04-03T12:14:54;100476.88;;;7.31;50.95
30554;BME280;17335;50.720;7.452;2023-04-03T12:17:27;100474.50;;;7.41;51.25
30554;BME280;17335;50.720;7.452;2023-04-03T12:19:55;100464.09;;;7.37;51.61
30554;BME280;17335;50.720;7.452;2023-04-03T12:22:23;100467.03;;;7.46;50.35
30554;BME280;17335;50.720;7.452;2023-04-03T12:24:51;100453.31;;;7.38;51.03
30554;BME280;17335;50.720;7.452;2023-04-03T12:27:32;100455.09;;;7.52;49.94
30554;BME280;17335;50.720;7.452;2023-04-03T12:43:47;100442.34;;;7.70;54.92
30554;BME280;17335;50.720;7.452;2023-04-03T12:46:22;100437.03;;;7.56;56.45
30554;BME280;17335;50.720;7.452;2023-04-03T12:48:51;100429.09;;;7.96;57.06
30554;BME280;17335;50.720;7.452;2023-04-03T12:51:26;100436.34;;;8.08;55.15
30554;BME280;17335;50.720;7.452;2023-04-03T12:54:01;100431.03;;;7.94;55.21
30554;BME280;17335;50.720;7.452;2023-04-03T12:56:30;100428.13;;;7.84;54.63
30554;BME280;17335;50.720;7.452;2023-04-03T12:59:21;100422.31;;;7.77;53.52
30554;BME280;17335;50.720;7.452;2023-04-03T13:01:55;100425.19;;;7.74;50.40
30554;BME280;17335;50.720;7.452;2023-04-03T13:04:23;100433.31;;;7.85;54.06
30554;BME280;17335;50.720;7.452;2023-04-03T13:06:51;100429.25;;;8.07;52.99
30554;BME280;17335;50.720;7.452;2023-04-03T13:09:26;100423.25;;;8.03;54.74
30554;BME280;17335;50.720;7.452;2023-04-03T13:12:10;100427.50;;;7.93;52.80
30554;BME280;17335;50.720;7.452;2023-04-03T13:14:37;100414.69;;;8.11;53.16
30554;BME280;17335;50.720;7.452;2023-04-03T13:17:14;100405.78;;;8.38;50.69
30554;BME280;17335;50.720;7.452;2023-04-03T13:19:41;100406.84;;;8.22;52.30
30554;BME280;17335;50.720;7.452;2023-04-03T13:22:35;100409.78;;;7.78;51.32
30554;BME280;17335;50.720;7.452;2023-04-03T13:25:11;100414.63;;;7.85;52.07
30554;BME280;17335;50.720;7.452;2023-04-03T13:27:40;100415.22;;;8.03;51.61
30554;BME280;17335;50.720;7.452;2023-04-03T13:30:27;100407.34;;;8.15;50.51
30554;BME280;17335;50.720;7.452;2023-04-03T13:32:56;100390.22;;;8.44;51.57
30554;BME280;17335;50.720;7.452;2023-04-03T13:35:38;100397.19;;;8.20;50.68
30554;BME280;17335;50.720;7.452;2023-04-03T13:41:05;100395.59;;;7.90;52.86
30554;BME280;17335;50.720;7.452;2023-04-03T13:43:34;100402.72;;;8.04;52.57
30554;BME280;17335;50.720;7.452;2023-04-03T13:48:43;100379.13;;;8.23;51.19
30554;BME280;17335;50.720;7.452;2023-04-03T13:56:34;100371.31;;;8.33;51.59
30554;BME280;17335;50.720;7.452;2023-04-03T13:59:22;100375.81;;;8.33;51.40
30554;BME280;17335;50.720;7.452;2023-04-03T14:01:54;100375.22;;;8.55;52.15
30554;BME280;17335;50.720;7.452;2023-04-03T14:04:24;100366.66;;;8.75;51.11
30554;BME280;17335;50.720;7.452;2023-04-03T14:06:52;100369.00;;;8.80;50.45
30554;BME280;17335;50.720;7.452;2023-04-03T14:09:21;100369.25;;;8.77;50.38
30554;BME280;17335;50.720;7.452;2023-04-03T14:11:50;100354.09;;;8.37;47.75
30554;BME280;17335;50.720;7.452;2023-04-03T14:14:21;100356.53;;;8.40;49.60
30554;BME280;17335;50.720;7.452;2023-04-03T14:16:55;100352.91;;;8.41;49.07
30554;BME280;17335;50.720;7.452;2023-04-03T14:19:29;100360.75;;;8.57;48.42
30554;BME280;17335;50.720;7.452;2023-04-03T14:21:58;100352.75;;;8.44;47.71
30554;BME280;17335;50.720;7.452;2023-04-03T14:24:26;100350.06;;;8.57;47.47
30554;BME280;17335;50.720;7.452;2023-04-03T14:26:54;100356.69;;;8.52;49.71
30554;BME280;17335;50.720;7.452;2023-04-03T14:29:22;100353.81;;;8.55;49.32
30554;BME280;17335;50.720;7.452;2023-04-03T14:31:49;100343.53;;;8.49;47.60
30554;BME280;17335;50.720;7.452;2023-04-03T14:34:29;100340.09;;;8.47;47.41
30554;BME280;17335;50.720;7.452;2023-04-03T14:36:56;100335.81;;;8.70;49.15
30554;BME280;17335;50.720;7.452;2023-04-03T14:39:22;100338.38;;;8.71;48.35
30554;BME280;17335;50.720;7.452;2023-04-03T14:41:49;100330.47;;;8.82;48.73
30554;BME280;17335;50.720;7.452;2023-04-03T14:44:16;100329.72;;;8.68;46.58
30554;BME280;17335;50.720;7.452;2023-04-03T14:46:43;100327.91;;;8.55;47.88